DLH508 ELLX-EDDP
Flight info
| Callsign | DLH508 |
|---|---|
| Flight time | N/A |
| Altitude | 35000 |
| Route | ASMOX1R ASMOX Y891 ROPUV L607 UBIDU L984 BOMBI Z728 MASEK T278 TAMEB T955 GOXLI GOXLI1R |
| Aircraft | A320/M-SDE3FGHIRWY/LB1 |
Departure
| Time | 2026-05-07 19:36 |
|---|---|
| Airport | Luxembourg-Findel International Airport (ELLX) |
Arrival
| Time | N/A |
|---|---|
| Airport | Leipzig/Halle Airport (EDDP) |
| Time | Latitude | Longitude | Altitude | Speed | Heading |
|---|---|---|---|---|---|
| 2026-05-07 19:01 | 49.63121 | 6.21529 | 1218 ft | 0 kts | 240° |
| 2026-05-07 19:25 | 49.63128 | 6.21550 | 1218 ft | 3 kts | 237° |
| 2026-05-07 19:25 | 49.63141 | 6.21570 | 1218 ft | 3 kts | 201° |
| 2026-05-07 19:26 | 49.63158 | 6.21576 | 1218 ft | 3 kts | 177° |
| 2026-05-07 19:26 | 49.63174 | 6.21570 | 1218 ft | 1 kts | 143° |
| 2026-05-07 19:32 | 49.63163 | 6.21583 | 1218 ft | 6 kts | 142° |
| 2026-05-07 19:32 | 49.63103 | 6.21647 | 1218 ft | 13 kts | 131° |
| 2026-05-07 19:32 | 49.63116 | 6.21777 | 1218 ft | 13 kts | 64° |
| 2026-05-07 19:32 | 49.63155 | 6.21905 | 1219 ft | 14 kts | 62° |
| 2026-05-07 19:33 | 49.63210 | 6.22075 | 1219 ft | 23 kts | 64° |
| 2026-05-07 19:33 | 49.63285 | 6.22318 | 1219 ft | 26 kts | 65° |
| 2026-05-07 19:33 | 49.63367 | 6.22567 | 1219 ft | 26 kts | 59° |
| 2026-05-07 19:33 | 49.63460 | 6.22814 | 1219 ft | 27 kts | 60° |
| 2026-05-07 19:34 | 49.63553 | 6.23066 | 1219 ft | 27 kts | 60° |
| 2026-05-07 19:34 | 49.63633 | 6.23280 | 1219 ft | 14 kts | 60° |
| 2026-05-07 19:34 | 49.63659 | 6.23423 | 1219 ft | 14 kts | 118° |
| 2026-05-07 19:34 | 49.63575 | 6.23507 | 1219 ft | 15 kts | 152° |
| 2026-05-07 19:35 | 49.63498 | 6.23444 | 1219 ft | 14 kts | 239° |
| 2026-05-07 19:35 | 49.63422 | 6.23246 | 1219 ft | 45 kts | 240° |
| 2026-05-07 19:35 | 49.63143 | 6.22495 | 1219 ft | 113 kts | 240° |
| 2026-05-07 19:35 | 49.62658 | 6.21192 | 1219 ft | 165 kts | 240° |
| 2026-05-07 19:36 | 49.62061 | 6.19599 | 1718 ft | 168 kts | 240° |
| 2026-05-07 19:36 | 49.61492 | 6.18045 | 2397 ft | 167 kts | 240° |
| 2026-05-07 19:36 | 49.60923 | 6.16460 | 3013 ft | 170 kts | 241° |
| 2026-05-07 19:36 | 49.60316 | 6.14751 | 3349 ft | 191 kts | 241° |
| 2026-05-07 19:37 | 49.59644 | 6.12877 | 3757 ft | 207 kts | 240° |
| 2026-05-07 19:37 | 49.58914 | 6.10882 | 4193 ft | 222 kts | 240° |
| 2026-05-07 19:37 | 49.58093 | 6.08644 | 4266 ft | 255 kts | 240° |
| 2026-05-07 19:37 | 49.57199 | 6.06187 | 4716 ft | 267 kts | 241° |
| 2026-05-07 19:38 | 49.56550 | 6.03562 | 5702 ft | 265 kts | 263° |
| 2026-05-07 19:38 | 49.56695 | 6.00733 | 6520 ft | 272 kts | 293° |
| 2026-05-07 19:38 | 49.57866 | 5.98462 | 7319 ft | 277 kts | 327° |
| 2026-05-07 19:38 | 49.59690 | 5.97552 | 8135 ft | 282 kts | 359° |
| 2026-05-07 19:39 | 49.61591 | 5.98315 | 8944 ft | 288 kts | 28° |
| 2026-05-07 19:39 | 49.63274 | 6.00054 | 9765 ft | 294 kts | 37° |
| 2026-05-07 19:39 | 49.64895 | 6.02063 | 10393 ft | 306 kts | 38° |
| 2026-05-07 19:39 | 49.66597 | 6.04165 | 10652 ft | 329 kts | 37° |
| 2026-05-07 19:40 | 49.68498 | 6.06361 | 10885 ft | 352 kts | 35° |
| 2026-05-07 19:40 | 49.70554 | 6.08552 | 11402 ft | 362 kts | 33° |
| 2026-05-07 19:40 | 49.72685 | 6.10687 | 12135 ft | 367 kts | 32° |
| 2026-05-07 19:40 | 49.74869 | 6.12793 | 12886 ft | 371 kts | 31° |
| 2026-05-07 19:41 | 49.77077 | 6.14886 | 13631 ft | 374 kts | 31° |
| 2026-05-07 19:41 | 49.79314 | 6.17004 | 13970 ft | 377 kts | 31° |
| 2026-05-07 19:41 | 49.81550 | 6.19134 | 14052 ft | 377 kts | 31° |
| 2026-05-07 19:41 | 49.83778 | 6.21274 | 14071 ft | 377 kts | 31° |
| 2026-05-07 19:42 | 49.86005 | 6.23432 | 14072 ft | 377 kts | 31° |
| 2026-05-07 19:42 | 49.88197 | 6.25566 | 14072 ft | 377 kts | 32° |
| 2026-05-07 19:42 | 49.90440 | 6.27685 | 14072 ft | 377 kts | 27° |
| 2026-05-07 19:42 | 49.92806 | 6.29425 | 14070 ft | 376 kts | 24° |
| 2026-05-07 19:43 | 49.95192 | 6.31127 | 14074 ft | 376 kts | 24° |
| 2026-05-07 19:43 | 49.97573 | 6.32822 | 14072 ft | 376 kts | 24° |
| 2026-05-07 19:43 | 49.99966 | 6.34526 | 14373 ft | 380 kts | 24° |
| 2026-05-07 19:43 | 50.02372 | 6.36245 | 15088 ft | 382 kts | 24° |
| 2026-05-07 19:44 | 50.04786 | 6.38022 | 15743 ft | 385 kts | 27° |
| 2026-05-07 19:44 | 50.06994 | 6.40322 | 16350 ft | 389 kts | 39° |
| 2026-05-07 19:44 | 50.08943 | 6.43353 | 16971 ft | 393 kts | 50° |
| 2026-05-07 19:44 | 50.10450 | 6.46861 | 17561 ft | 397 kts | 62° |
| 2026-05-07 19:45 | 50.11664 | 6.50734 | 18183 ft | 401 kts | 64° |
| 2026-05-07 19:45 | 50.12884 | 6.54677 | 18712 ft | 404 kts | 64° |
| 2026-05-07 19:45 | 50.14113 | 6.58636 | 19235 ft | 407 kts | 64° |
| 2026-05-07 19:45 | 50.15357 | 6.62632 | 19752 ft | 411 kts | 64° |
| 2026-05-07 19:46 | 50.16606 | 6.66658 | 20273 ft | 414 kts | 64° |
| 2026-05-07 19:46 | 50.17859 | 6.70706 | 20783 ft | 417 kts | 64° |
| 2026-05-07 19:46 | 50.19121 | 6.74800 | 21293 ft | 420 kts | 64° |
| 2026-05-07 19:46 | 50.20376 | 6.78929 | 21775 ft | 423 kts | 66° |
| 2026-05-07 19:47 | 50.21326 | 6.83289 | 22225 ft | 426 kts | 76° |
| 2026-05-07 19:47 | 50.21803 | 6.87872 | 22668 ft | 429 kts | 86° |
| 2026-05-07 19:47 | 50.21798 | 6.92549 | 23113 ft | 432 kts | 95° |
| 2026-05-07 19:47 | 50.21556 | 6.97235 | 23544 ft | 435 kts | 95° |
| 2026-05-07 19:48 | 50.21309 | 7.01952 | 23911 ft | 438 kts | 95° |
| 2026-05-07 19:48 | 50.21060 | 7.06700 | 24267 ft | 440 kts | 95° |
| 2026-05-07 19:48 | 50.20809 | 7.11472 | 24618 ft | 442 kts | 95° |
| 2026-05-07 19:48 | 50.20555 | 7.16267 | 24963 ft | 444 kts | 95° |
| 2026-05-07 19:49 | 50.20299 | 7.21022 | 25298 ft | 446 kts | 95° |
| 2026-05-07 19:49 | 50.20033 | 7.25862 | 25639 ft | 448 kts | 95° |
| 2026-05-07 19:49 | 50.19737 | 7.30717 | 25964 ft | 450 kts | 98° |
| 2026-05-07 19:49 | 50.19084 | 7.35513 | 26288 ft | 451 kts | 107° |
| 2026-05-07 19:50 | 50.18107 | 7.40184 | 26600 ft | 453 kts | 109° |
| 2026-05-07 19:50 | 50.17116 | 7.44854 | 26907 ft | 455 kts | 109° |
| 2026-05-07 19:50 | 50.16118 | 7.49566 | 27213 ft | 457 kts | 109° |
| 2026-05-07 19:50 | 50.15120 | 7.54286 | 27512 ft | 459 kts | 109° |
| 2026-05-07 19:51 | 50.14456 | 7.57422 | 27709 ft | 460 kts | 109° |
| 2026-05-07 19:51 | 50.13448 | 7.62165 | 27982 ft | 462 kts | 109° |
| 2026-05-07 19:51 | 50.12431 | 7.66928 | 28257 ft | 464 kts | 109° |
| 2026-05-07 19:51 | 50.11074 | 7.73269 | 28599 ft | 466 kts | 109° |
| 2026-05-07 19:52 | 50.10375 | 7.76526 | 28774 ft | 467 kts | 109° |
| 2026-05-07 19:52 | 50.09340 | 7.81331 | 29022 ft | 469 kts | 109° |
| 2026-05-07 19:52 | 50.08298 | 7.86152 | 29306 ft | 470 kts | 109° |
| 2026-05-07 19:52 | 50.07307 | 7.90916 | 29651 ft | 469 kts | 105° |
| 2026-05-07 19:53 | 50.06552 | 7.95861 | 30007 ft | 468 kts | 103° |
| 2026-05-07 19:53 | 50.05818 | 8.00792 | 30322 ft | 467 kts | 103° |
| 2026-05-07 19:53 | 50.05125 | 8.05722 | 30603 ft | 467 kts | 99° |
| 2026-05-07 19:53 | 50.04817 | 8.10767 | 30876 ft | 466 kts | 90° |
| 2026-05-07 19:54 | 50.04863 | 8.15813 | 31146 ft | 466 kts | 88° |
| 2026-05-07 19:54 | 50.04929 | 8.20848 | 31427 ft | 466 kts | 88° |
| 2026-05-07 19:54 | 50.04993 | 8.25882 | 31712 ft | 465 kts | 88° |
| 2026-05-07 19:54 | 50.05052 | 8.30918 | 31996 ft | 465 kts | 89° |
| 2026-05-07 19:55 | 50.05107 | 8.35888 | 32278 ft | 465 kts | 89° |
| 2026-05-07 19:55 | 50.05158 | 8.40924 | 32559 ft | 464 kts | 89° |
| 2026-05-07 19:55 | 50.05210 | 8.45944 | 32851 ft | 464 kts | 89° |
| 2026-05-07 19:55 | 50.05260 | 8.50961 | 33131 ft | 464 kts | 89° |
| 2026-05-07 19:56 | 50.05310 | 8.56000 | 33415 ft | 464 kts | 88° |
| 2026-05-07 19:56 | 50.05356 | 8.61010 | 33681 ft | 464 kts | 89° |
| 2026-05-07 19:56 | 50.05402 | 8.66030 | 33954 ft | 463 kts | 88° |
| 2026-05-07 19:56 | 50.05737 | 8.71001 | 34199 ft | 462 kts | 77° |
| 2026-05-07 19:57 | 50.06645 | 8.75760 | 34408 ft | 460 kts | 66° |
| 2026-05-07 19:57 | 50.08079 | 8.80220 | 34610 ft | 459 kts | 56° |
| 2026-05-07 19:57 | 50.09958 | 8.84210 | 34802 ft | 457 kts | 46° |
| 2026-05-07 19:57 | 50.12238 | 8.87657 | 34991 ft | 455 kts | 37° |
| 2026-05-07 19:58 | 50.17274 | 8.93598 | 35085 ft | 458 kts | 35° |
| 2026-05-07 19:58 | 50.22380 | 8.99595 | 35082 ft | 459 kts | 35° |
| 2026-05-07 19:59 | 50.27483 | 9.05605 | 35087 ft | 459 kts | 35° |
| 2026-05-07 19:59 | 50.32588 | 9.11630 | 35087 ft | 459 kts | 35° |
| 2026-05-07 20:00 | 50.37689 | 9.17662 | 35093 ft | 459 kts | 35° |
| 2026-05-07 20:00 | 50.42755 | 9.23668 | 35097 ft | 459 kts | 35° |
| 2026-05-07 20:01 | 50.47848 | 9.29727 | 35098 ft | 459 kts | 36° |
| 2026-05-07 20:01 | 50.52937 | 9.35807 | 35105 ft | 459 kts | 36° |
| 2026-05-07 20:02 | 50.58016 | 9.41898 | 35107 ft | 459 kts | 36° |
| 2026-05-07 20:02 | 50.63099 | 9.47986 | 35120 ft | 459 kts | 36° |
| 2026-05-07 20:03 | 50.68128 | 9.54177 | 34788 ft | 457 kts | 41° |
| 2026-05-07 20:03 | 50.70269 | 9.57892 | 34111 ft | 458 kts | 52° |
| 2026-05-07 20:03 | 50.71944 | 9.62158 | 33302 ft | 458 kts | 63° |
| 2026-05-07 20:04 | 50.73119 | 9.66763 | 32466 ft | 459 kts | 73° |
| 2026-05-07 20:04 | 50.73793 | 9.71694 | 31627 ft | 460 kts | 82° |
| 2026-05-07 20:04 | 50.74171 | 9.76714 | 30751 ft | 461 kts | 83° |
| 2026-05-07 20:04 | 50.74538 | 9.81746 | 29876 ft | 461 kts | 83° |
| 2026-05-07 20:05 | 50.74899 | 9.86783 | 29261 ft | 462 kts | 83° |
| 2026-05-07 20:05 | 50.75258 | 9.91832 | 28669 ft | 464 kts | 83° |
| 2026-05-07 20:05 | 50.75619 | 9.96913 | 28088 ft | 465 kts | 83° |
| 2026-05-07 20:05 | 50.75980 | 10.01992 | 27518 ft | 463 kts | 83° |
| 2026-05-07 20:06 | 50.76335 | 10.07020 | 26961 ft | 460 kts | 83° |
| 2026-05-07 20:06 | 50.76690 | 10.12038 | 26412 ft | 457 kts | 83° |
| 2026-05-07 20:06 | 50.77037 | 10.17003 | 25867 ft | 454 kts | 83° |
| 2026-05-07 20:06 | 50.77378 | 10.21944 | 25352 ft | 451 kts | 84° |
| 2026-05-07 20:07 | 50.77709 | 10.26792 | 24841 ft | 448 kts | 84° |
| 2026-05-07 20:07 | 50.78039 | 10.31677 | 24330 ft | 445 kts | 84° |
| 2026-05-07 20:07 | 50.78367 | 10.36517 | 23972 ft | 441 kts | 84° |
| 2026-05-07 20:07 | 50.78693 | 10.41315 | 23409 ft | 437 kts | 84° |
| 2026-05-07 20:08 | 50.79014 | 10.46081 | 22680 ft | 434 kts | 84° |
| 2026-05-07 20:08 | 50.79330 | 10.50806 | 22026 ft | 430 kts | 84° |
| 2026-05-07 20:08 | 50.79641 | 10.55487 | 21406 ft | 426 kts | 84° |
| 2026-05-07 20:08 | 50.79946 | 10.60127 | 20803 ft | 422 kts | 84° |
| 2026-05-07 20:09 | 50.80247 | 10.64732 | 20286 ft | 419 kts | 84° |
| 2026-05-07 20:09 | 50.80601 | 10.69248 | 20079 ft | 419 kts | 79° |
| 2026-05-07 20:09 | 50.81378 | 10.73683 | 19913 ft | 417 kts | 66° |
| 2026-05-07 20:10 | 50.84855 | 10.80897 | 19569 ft | 414 kts | 45° |
| 2026-05-07 20:10 | 50.86867 | 10.84142 | 19406 ft | 413 kts | 44° |
| 2026-05-07 20:10 | 50.88882 | 10.87384 | 19232 ft | 412 kts | 44° |
| 2026-05-07 20:10 | 50.90888 | 10.90615 | 19065 ft | 411 kts | 44° |
| 2026-05-07 20:11 | 50.92892 | 10.93841 | 18898 ft | 410 kts | 44° |
| 2026-05-07 20:11 | 50.94812 | 10.96937 | 18725 ft | 402 kts | 44° |
| 2026-05-07 20:11 | 50.96779 | 11.00116 | 18564 ft | 389 kts | 44° |
| 2026-05-07 20:11 | 50.98642 | 11.03134 | 18386 ft | 377 kts | 44° |
| 2026-05-07 20:12 | 51.00477 | 11.06111 | 17816 ft | 376 kts | 44° |
| 2026-05-07 20:12 | 51.02303 | 11.09079 | 17253 ft | 375 kts | 44° |
| 2026-05-07 20:12 | 51.04125 | 11.12040 | 16704 ft | 374 kts | 44° |
| 2026-05-07 20:12 | 51.05944 | 11.14996 | 16157 ft | 373 kts | 44° |
| 2026-05-07 20:13 | 51.07754 | 11.17938 | 15625 ft | 372 kts | 45° |
| 2026-05-07 20:13 | 51.09560 | 11.20872 | 15095 ft | 370 kts | 44° |
| 2026-05-07 20:13 | 51.11361 | 11.23795 | 14585 ft | 369 kts | 45° |
| 2026-05-07 20:13 | 51.13152 | 11.26700 | 14078 ft | 367 kts | 44° |
| 2026-05-07 20:14 | 51.14936 | 11.29593 | 13540 ft | 365 kts | 44° |
| 2026-05-07 20:14 | 51.16693 | 11.32446 | 13252 ft | 355 kts | 44° |
| 2026-05-07 20:14 | 51.18370 | 11.35173 | 13116 ft | 342 kts | 45° |
| 2026-05-07 20:14 | 51.20025 | 11.37868 | 12977 ft | 329 kts | 45° |
| 2026-05-07 20:15 | 51.21581 | 11.40402 | 12737 ft | 322 kts | 45° |
| 2026-05-07 20:15 | 51.23153 | 11.42967 | 12209 ft | 323 kts | 45° |
| 2026-05-07 20:15 | 51.24726 | 11.45531 | 11640 ft | 325 kts | 45° |
| 2026-05-07 20:15 | 51.26319 | 11.48128 | 11019 ft | 329 kts | 45° |
| 2026-05-07 20:16 | 51.27929 | 11.50752 | 10402 ft | 332 kts | 45° |
| 2026-05-07 20:16 | 51.29549 | 11.53396 | 9775 ft | 333 kts | 45° |
| 2026-05-07 20:16 | 51.31174 | 11.56047 | 9106 ft | 334 kts | 45° |
| 2026-05-07 20:16 | 51.32810 | 11.58701 | 8448 ft | 334 kts | 45° |
| 2026-05-07 20:17 | 51.34448 | 11.61345 | 7809 ft | 334 kts | 45° |
| 2026-05-07 20:17 | 51.36083 | 11.63971 | 7180 ft | 333 kts | 45° |
| 2026-05-07 20:17 | 51.37700 | 11.66555 | 6571 ft | 331 kts | 45° |
| 2026-05-07 20:17 | 51.39284 | 11.69216 | 5915 ft | 329 kts | 53° |
| 2026-05-07 20:18 | 51.40402 | 11.72390 | 5274 ft | 327 kts | 64° |
| 2026-05-07 20:18 | 51.41374 | 11.75659 | 4625 ft | 324 kts | 65° |
| 2026-05-07 20:18 | 51.42325 | 11.78908 | 4181 ft | 316 kts | 66° |
| 2026-05-07 20:18 | 51.42860 | 11.82205 | 4100 ft | 297 kts | 85° |
| 2026-05-07 20:19 | 51.42711 | 11.85398 | 4007 ft | 281 kts | 103° |
| 2026-05-07 20:19 | 51.42041 | 11.88365 | 3342 ft | 286 kts | 111° |
| 2026-05-07 20:19 | 51.41677 | 11.91401 | 3146 ft | 271 kts | 87° |
| 2026-05-07 20:19 | 51.41897 | 11.94248 | 3104 ft | 243 kts | 83° |
| 2026-05-07 20:20 | 51.42044 | 11.96784 | 3109 ft | 216 kts | 85° |
| 2026-05-07 20:20 | 51.42134 | 11.99057 | 3103 ft | 193 kts | 86° |
| 2026-05-07 20:20 | 51.42211 | 12.01103 | 3103 ft | 177 kts | 85° |
| 2026-05-07 20:20 | 51.42285 | 12.02996 | 3152 ft | 163 kts | 85° |
| 2026-05-07 20:21 | 51.42357 | 12.04718 | 3134 ft | 148 kts | 85° |
| 2026-05-07 20:21 | 51.42427 | 12.06335 | 3117 ft | 143 kts | 85° |
| 2026-05-07 20:21 | 51.42497 | 12.07916 | 3117 ft | 142 kts | 84° |
| 2026-05-07 20:21 | 51.42568 | 12.09492 | 3118 ft | 141 kts | 85° |
| 2026-05-07 20:22 | 51.42638 | 12.11051 | 3065 ft | 138 kts | 85° |
| 2026-05-07 20:22 | 51.42708 | 12.12594 | 2621 ft | 149 kts | 84° |
| 2026-05-07 20:22 | 51.42787 | 12.14295 | 2179 ft | 155 kts | 84° |
| 2026-05-07 20:22 | 51.42867 | 12.16040 | 1749 ft | 159 kts | 84° |
| 2026-05-07 20:23 | 51.42952 | 12.17854 | 1189 ft | 167 kts | 84° |
| 2026-05-07 20:23 | 51.43034 | 12.19626 | 1107 ft | 151 kts | 84° |
| 2026-05-07 20:23 | 51.43108 | 12.21308 | 679 ft | 154 kts | 85° |
| 2026-05-07 20:23 | 51.43185 | 12.22980 | 461 ft | 139 kts | 80° |
| 2026-05-07 20:24 | 51.43256 | 12.24348 | 442 ft | 111 kts | 88° |
| 2026-05-07 20:24 | 51.43302 | 12.25344 | 458 ft | 69 kts | 85° |